Time;durP1;ratioP1;P1;durP2;ratioP2;P2;SDS_P1;SDS_P2;PMS_P1;PMS_P2;Temp;Humidity;BMP_temperature;BMP_pressure;BME280_temperature;BME280_humidity;BME280_pressure;Samples;Min_cycle;Max_cycle;Signal;HPM_P1;HPM_P2
2023/05/18 00:01:09;;;;;;;17.17;5.03;;;;;;;;;;13001419;19;20018;-65
2023/05/18 00:05:33;;;;;;;6.22;3.08;;;;;;;;;;13002082;19;20014;-64
2023/05/18 00:09:51;;;;;;;6.30;3.13;;;;;;;;;;13001852;19;20015;-64
2023/05/18 00:14:08;;;;;;;6.68;3.15;;;;;;;;;;13001817;19;20018;-64
2023/05/18 00:18:26;;;;;;;7.15;3.15;;;;;;;;;;13001509;19;20014;-64
2023/05/18 00:22:47;;;;;;;7.50;3.20;;;;;;;;;;13000847;19;20003;-64
2023/05/18 00:27:04;;;;;;;6.97;3.00;;;;;;;;;;12999394;19;20019;-64
2023/05/18 00:31:21;;;;;;;5.63;2.72;;;;;;;;;;13012049;19;20034;-64
2023/05/18 00:35:39;;;;;;;4.72;2.20;;;;;;;;;;13012929;19;20127;-63
2023/05/18 00:39:57;;;;;;;8.20;2.85;;;;;;;;;;13012754;19;20035;-63
2023/05/18 00:44:17;;;;;;;7.40;2.80;;;;;;;;;;13010683;19;20458;-64
2023/05/18 00:48:35;;;;;;;8.85;2.08;;;;;;;;;;13012519;19;20014;-63
2023/05/18 00:52:53;;;;;;;6.93;3.85;;;;;;;;;;13012850;19;20378;-64
2023/05/18 00:57:11;;;;;;;5.97;2.38;;;;;;;;;;13011624;19;20011;-64
2023/05/18 01:01:35;;;;;;;3.33;2.00;;;;;;;;;;13012000;19;20018;-64
2023/05/18 01:05:56;;;;;;;4.88;2.72;;;;;;;;;;13012331;19;20445;-63
2023/05/18 01:10:17;;;;;;;8.13;2.72;;;;;;;;;;13010145;19;20013;-63
2023/05/18 01:14:51;;;;;;;6.32;2.40;;;;;;;;;;13011489;19;20010;-64
2023/05/18 01:19:43;;;;;;;7.45;2.90;;;;;;;;;;13008924;19;20038;-63
2023/05/18 01:24:34;;;;;;;10.88;2.50;;;;;;;;;;13009912;19;20002;-67
2023/05/18 01:28:53;;;;;;;6.97;2.67;;;;;;;;;;13008536;19;20018;-63
2023/05/18 01:33:12;;;;;;;8.32;2.53;;;;;;;;;;13007888;19;20034;-63
2023/05/18 01:37:30;;;;;;;6.95;1.77;;;;;;;;;;13009671;19;20009;-63
2023/05/18 01:41:57;;;;;;;4.82;2.60;;;;;;;;;;13009186;19;19999;-63
2023/05/18 01:46:42;;;;;;;8.15;2.72;;;;;;;;;;13008650;19;20461;-63
2023/05/18 01:51:00;;;;;;;16.23;2.83;;;;;;;;;;13009173;19;20007;-64
2023/05/18 01:55:19;;;;;;;;;;;;;;;;;;13008512;19;20011;-64
2023/05/18 01:59:38;;;;;;;7.32;2.00;;;;;;;;;;13007719;19;19915;-63
2023/05/18 02:03:55;;;;;;;8.82;3.00;;;;;;;;;;13008885;19;20482;-64
2023/05/18 02:08:13;;;;;;;6.20;2.33;;;;;;;;;;13006950;19;20003;-64
2023/05/18 02:12:31;;;;;;;6.60;2.55;;;;;;;;;;13007775;19;20018;-64
2023/05/18 02:16:51;;;;;;;7.75;1.92;;;;;;;;;;13008025;19;20014;-65
2023/05/18 02:21:09;;;;;;;5.57;2.42;;;;;;;;;;13008317;19;20011;-65
2023/05/18 02:25:27;;;;;;;7.38;2.58;;;;;;;;;;13007353;19;26645;-64
2023/05/18 02:29:45;;;;;;;5.65;2.13;;;;;;;;;;13006968;19;20007;-64
2023/05/18 02:34:03;;;;;;;5.53;2.03;;;;;;;;;;13006277;19;20030;-64
2023/05/18 02:38:20;;;;;;;5.15;2.08;;;;;;;;;;13006453;19;20339;-64
2023/05/18 02:42:38;;;;;;;6.07;1.92;;;;;;;;;;13006116;19;20006;-64
2023/05/18 02:46:56;;;;;;;8.98;2.72;;;;;;;;;;13005546;19;20013;-64
2023/05/18 02:51:14;;;;;;;5.07;2.55;;;;;;;;;;13003532;19;20368;-65
2023/05/18 02:55:31;;;;;;;5.82;2.38;;;;;;;;;;13005354;19;19999;-65
2023/05/18 02:59:49;;;;;;;10.85;3.28;;;;;;;;;;13005778;19;20326;-65
2023/05/18 03:04:07;;;;;;;7.55;2.85;;;;;;;;;;13005397;19;20469;-65
2023/05/18 03:08:25;;;;;;;;;;;;;;;;;;13006469;19;20038;-65
2023/05/18 03:12:44;;;;;;;8.30;3.15;;;;;;;;;;13005939;19;19937;-65
2023/05/18 03:17:04;;;;;;;7.15;2.42;;;;;;;;;;13007561;19;20331;-65
2023/05/18 03:21:22;;;;;;;8.35;2.63;;;;;;;;;;13006534;19;20047;-64
2023/05/18 03:25:40;;;;;;;10.20;2.90;;;;;;;;;;13004371;19;20010;-64
2023/05/18 03:29:57;;;;;;;1.88;0.80;;;;;;;;;;13003414;19;20092;-64
2023/05/18 03:34:15;;;;;;;4.15;1.70;;;;;;;;;;13002589;19;20007;-65
2023/05/18 03:38:32;;;;;;;6.53;2.22;;;;;;;;;;13003397;19;20090;-65
2023/05/18 03:42:50;;;;;;;9.47;2.10;;;;;;;;;;13003628;19;20362;-65
2023/05/18 03:47:08;;;;;;;5.15;1.83;;;;;;;;;;13001273;19;20215;-65
2023/05/18 03:51:27;;;;;;;5.75;2.50;;;;;;;;;;13002697;19;20006;-65
2023/05/18 03:55:48;;;;;;;6.20;2.00;;;;;;;;;;13002970;19;20017;-65
2023/05/18 04:00:12;;;;;;;6.40;1.85;;;;;;;;;;13002571;19;20003;-64
2023/05/18 04:04:29;;;;;;;4.88;2.40;;;;;;;;;;12999469;19;20032;-64
2023/05/18 04:08:48;;;;;;;4.18;1.67;;;;;;;;;;13001674;19;20018;-64
2023/05/18 04:13:05;;;;;;;;;;;;;;;;;;13001456;19;20005;-64
2023/05/18 04:17:23;;;;;;;8.97;2.67;;;;;;;;;;13001028;19;19922;-64
2023/05/18 04:21:42;;;;;;;6.32;2.33;;;;;;;;;;13001351;19;20371;-64
2023/05/18 04:25:59;;;;;;;6.22;1.65;;;;;;;;;;13000745;19;20010;-64
2023/05/18 04:30:20;;;;;;;;;;;;;;;;;;13000122;19;20010;-64
2023/05/18 04:34:38;;;;;;;7.05;1.48;;;;;;;;;;13000624;19;19935;-64
2023/05/18 04:38:57;;;;;;;6.55;1.77;;;;;;;;;;13000740;19;20007;-64
2023/05/18 04:43:17;;;;;;;3.70;1.40;;;;;;;;;;12998648;19;20007;-64
2023/05/18 04:47:34;;;;;;;6.45;1.63;;;;;;;;;;12999728;19;20010;-64
2023/05/18 04:51:54;;;;;;;4.32;1.42;;;;;;;;;;12998379;19;20013;-64
2023/05/18 04:56:12;;;;;;;6.80;1.90;;;;;;;;;;12998685;19;20359;-64
2023/05/18 05:00:30;;;;;;;7.22;2.30;;;;;;;;;;12999035;19;20010;-64
2023/05/18 05:04:48;;;;;;;10.02;2.45;;;;;;;;;;12999197;19;20015;-64
2023/05/18 05:09:06;;;;;;;5.95;1.42;;;;;;;;;;12997376;19;19998;-64
2023/05/18 05:13:23;;;;;;;6.18;1.20;;;;;;;;;;13000277;19;20014;-64
2023/05/18 05:17:41;;;;;;;7.15;2.30;;;;;;;;;;13010553;19;20010;-64
2023/05/18 05:21:58;;;;;;;5.30;1.70;;;;;;;;;;13010033;19;20011;-64
2023/05/18 05:26:17;;;;;;;;;;;;;;;;;;13011239;19;20227;-64
2023/05/18 05:30:35;;;;;;;;;;;;;;;;;;13010408;19;19915;-64
2023/05/18 05:34:52;;;;;;;0.47;0.47;;;;;;;;;;13010909;19;19911;-64
2023/05/18 05:39:10;;;;;;;8.65;1.73;;;;;;;;;;13007437;19;20030;-64
2023/05/18 05:43:28;;;;;;;3.88;1.58;;;;;;;;;;12987041;19;20049;-64
2023/05/18 05:47:45;;;;;;;5.80;1.15;;;;;;;;;;13009190;19;20011;-64
2023/05/18 05:52:03;;;;;;;4.43;1.02;;;;;;;;;;13008603;19;20013;-63
2023/05/18 05:56:21;;;;;;;3.53;1.20;;;;;;;;;;13008846;19;20030;-63
2023/05/18 06:00:39;;;;;;;3.95;1.00;;;;;;;;;;13008574;19;20018;-64
2023/05/18 06:04:57;;;;;;;4.28;1.10;;;;;;;;;;13008102;19;20006;-64
2023/05/18 06:09:15;;;;;;;2.25;0.85;;;;;;;;;;13007158;19;20501;-64
2023/05/18 06:13:32;;;;;;;6.13;1.20;;;;;;;;;;13007801;19;20351;-64
2023/05/18 06:17:50;;;;;;;6.00;1.50;;;;;;;;;;13007456;19;20375;-63
2023/05/18 06:22:08;;;;;;;;;;;;;;;;;;13007481;19;20014;-64
2023/05/18 06:26:26;;;;;;;3.47;1.08;;;;;;;;;;13005002;19;21160;-64
2023/05/18 06:30:44;;;;;;;2.80;0.98;;;;;;;;;;13006555;19;20010;-64
2023/05/18 06:35:02;;;;;;;5.28;1.27;;;;;;;;;;13006814;19;20043;-63
2023/05/18 06:39:20;;;;;;;5.05;1.42;;;;;;;;;;13007082;19;20011;-63
2023/05/18 06:43:38;;;;;;;3.47;0.90;;;;;;;;;;13005391;19;20015;-63
2023/05/18 06:47:55;;;;;;;4.90;1.23;;;;;;;;;;13006553;19;20017;-63
2023/05/18 06:52:13;;;;;;;4.18;0.88;;;;;;;;;;13005020;19;19998;-63
2023/05/18 06:56:31;;;;;;;4.43;1.00;;;;;;;;;;13005712;19;20002;-63
2023/05/18 07:00:48;;;;;;;5.32;1.35;;;;;;;;;;13005593;19;20374;-63
2023/05/18 07:05:08;;;;;;;5.20;1.02;;;;;;;;;;13004581;19;20104;-64
2023/05/18 07:09:26;;;;;;;4.30;1.02;;;;;;;;;;13004402;19;20022;-64
2023/05/18 07:13:44;;;;;;;7.13;1.17;;;;;;;;;;13004405;19;20011;-64
2023/05/18 07:18:02;;;;;;;3.42;0.90;;;;;;;;;;13003414;19;20474;-65
2023/05/18 07:22:20;;;;;;;2.83;1.30;;;;;;;;;;13004077;19;20034;-64
2023/05/18 07:26:38;;;;;;;4.40;0.90;;;;;;;;;;13003592;19;20011;-64
2023/05/18 07:30:55;;;;;;;1.38;0.75;;;;;;;;;;13003407;19;20014;-64
2023/05/18 07:35:15;;;;;;;4.15;1.45;;;;;;;;;;13002933;19;20465;-64
2023/05/18 07:39:33;;;;;;;5.22;1.13;;;;;;;;;;13003197;19;20014;-64
2023/05/18 07:43:51;;;;;;;5.90;0.98;;;;;;;;;;13001747;19;20015;-64
2023/05/18 07:48:09;;;;;;;;;;;;;;;;;;13002970;19;20011;-64
2023/05/18 07:52:27;;;;;;;3.92;1.30;;;;;;;;;;13002724;19;19935;-64
2023/05/18 07:56:45;;;;;;;8.55;2.20;;;;;;;;;;13002502;19;20470;-64
2023/05/18 08:01:03;;;;;;;3.83;1.30;;;;;;;;;;13001451;19;20017;-65
2023/05/18 08:05:21;;;;;;;2.55;1.15;;;;;;;;;;13001609;19;20042;-64
2023/05/18 08:09:39;;;;;;;3.28;1.20;;;;;;;;;;13001945;19;20439;-64
2023/05/18 08:13:57;;;;;;;;;;;;;;;;;;13002132;19;20010;-64
2023/05/18 08:18:15;;;;;;;3.58;0.95;;;;;;;;;;13000931;19;19914;-64
2023/05/18 08:22:33;;;;;;;4.35;0.98;;;;;;;;;;13001037;19;20011;-65
2023/05/18 08:26:51;;;;;;;2.03;0.80;;;;;;;;;;13000604;19;20516;-64
2023/05/18 08:31:11;;;;;;;2.28;0.90;;;;;;;;;;13000182;19;20484;-65
2023/05/18 08:35:29;;;;;;;32.95;11.50;;;;;;;;;;13000412;19;20387;-65
2023/05/18 08:39:47;;;;;;;3.70;1.10;;;;;;;;;;13000414;19;20007;-64
2023/05/18 08:44:29;;;;;;;6.28;2.22;;;;;;;;;;12998774;19;20496;-64
2023/05/18 08:48:52;;;;;;;3.72;1.23;;;;;;;;;;13001430;19;20046;-64
2023/05/18 08:53:12;;;;;;;6.45;1.77;;;;;;;;;;13011871;19;20038;-64
2023/05/18 08:57:36;;;;;;;2.38;1.38;;;;;;;;;;13012374;19;20493;-64
2023/05/18 09:01:53;;;;;;;6.07;2.00;;;;;;;;;;13011025;19;20034;-64
2023/05/18 09:06:11;;;;;;;;;;;;;;;;;;13012014;19;20017;-64
2023/05/18 09:10:32;;;;;;;3.40;1.67;;;;;;;;;;13010249;19;20017;-64
2023/05/18 09:14:51;;;;;;;10.10;3.25;;;;;;;;;;13010561;19;20034;-64
2023/05/18 09:19:09;;;;;;;4.57;0.98;;;;;;;;;;13010766;19;20116;-65
2023/05/18 09:23:28;;;;;;;3.42;1.38;;;;;;;;;;13010852;19;20010;-64
2023/05/18 09:27:47;;;;;;;5.38;1.40;;;;;;;;;;13009057;19;20002;-64
2023/05/18 09:32:10;;;;;;;6.03;0.98;;;;;;;;;;13008213;19;20007;-64
2023/05/18 09:36:31;;;;;;;4.95;1.08;;;;;;;;;;13008831;19;20042;-64
2023/05/18 09:40:49;;;;;;;1.50;0.80;;;;;;;;;;13009944;19;20011;-64
2023/05/18 09:45:22;;;;;;;;;;;;;;;;;;13007918;19;20019;-64
2023/05/18 09:49:40;;;;;;;3.00;1.02;;;;;;;;;;13008729;19;19911;-64
2023/05/18 09:53:58;;;;;;;3.35;1.60;;;;;;;;;;13009008;19;20021;-64
2023/05/18 09:58:16;;;;;;;3.35;0.70;;;;;;;;;;13008680;19;20014;-64
2023/05/18 10:02:38;;;;;;;3.75;0.65;;;;;;;;;;13007739;19;20453;-64
2023/05/18 10:06:56;;;;;;;1.35;0.57;;;;;;;;;;13008908;19;20521;-64
2023/05/18 10:11:18;;;;;;;2.97;0.77;;;;;;;;;;13007648;19;20014;-64
2023/05/18 10:15:36;;;;;;;1.75;0.90;;;;;;;;;;13008163;19;20461;-65
2023/05/18 10:19:55;;;;;;;3.08;1.10;;;;;;;;;;13006170;19;20010;-64
2023/05/18 10:24:19;;;;;;;3.47;0.95;;;;;;;;;;13005470;19;20010;-65
2023/05/18 10:28:47;;;;;;;2.95;0.73;;;;;;;;;;13005921;19;20030;-65
2023/05/18 10:33:06;;;;;;;3.53;0.95;;;;;;;;;;13004113;19;20096;-65
2023/05/18 10:37:49;;;;;;;3.13;1.13;;;;;;;;;;13006939;19;19998;-65
2023/05/18 10:42:08;;;;;;;3.85;1.17;;;;;;;;;;13005504;19;20034;-65
2023/05/18 10:46:27;;;;;;;3.08;0.80;;;;;;;;;;13006135;19;20065;-65
2023/05/18 10:50:48;;;;;;;2.78;0.95;;;;;;;;;;13004532;19;20002;-65
2023/05/18 10:55:07;;;;;;;5.50;1.15;;;;;;;;;;13005052;19;20358;-65
2023/05/18 10:59:27;;;;;;;2.50;0.50;;;;;;;;;;13005119;19;20010;-65
2023/05/18 11:03:48;;;;;;;2.72;1.08;;;;;;;;;;13004208;19;20010;-65
2023/05/18 11:08:07;;;;;;;3.45;1.15;;;;;;;;;;13005258;19;20022;-65
2023/05/18 11:12:24;;;;;;;3.17;1.15;;;;;;;;;;13003064;19;20018;-65
2023/05/18 11:16:42;;;;;;;3.00;0.98;;;;;;;;;;13004972;19;20013;-65
2023/05/18 11:21:00;;;;;;;2.05;0.73;;;;;;;;;;13004214;19;20477;-64
2023/05/18 11:25:27;;;;;;;4.85;0.93;;;;;;;;;;12981747;19;20006;-65
2023/05/18 11:29:48;;;;;;;2.90;1.05;;;;;;;;;;13003612;19;20339;-64
2023/05/18 11:34:43;;;;;;;1.30;0.70;;;;;;;;;;13002648;19;20492;-65
2023/05/18 11:39:05;;;;;;;4.32;0.93;;;;;;;;;;13002505;19;20003;-65
2023/05/18 11:43:24;;;;;;;1.08;0.70;;;;;;;;;;13002636;19;20014;-64
2023/05/18 11:47:41;;;;;;;1.98;0.80;;;;;;;;;;13003607;19;20007;-64
2023/05/18 11:52:06;;;;;;;1.27;0.70;;;;;;;;;;13001074;19;20018;-64
2023/05/18 11:56:25;;;;;;;5.20;1.20;;;;;;;;;;13002049;19;20099;-64
2023/05/18 12:00:45;;;;;;;6.25;1.35;;;;;;;;;;13000441;19;20010;-64
2023/05/18 12:05:08;;;;;;;4.18;1.00;;;;;;;;;;12999865;19;20010;-65
2023/05/18 12:09:29;;;;;;;4.00;1.20;;;;;;;;;;13002048;19;20019;-64
2023/05/18 12:13:50;;;;;;;2.50;1.30;;;;;;;;;;13001577;19;20035;-64
2023/05/18 12:18:07;;;;;;;2.22;1.00;;;;;;;;;;13000216;19;20342;-64
2023/05/18 12:22:25;;;;;;;3.58;1.05;;;;;;;;;;12999965;19;20014;-64
2023/05/18 12:26:45;;;;;;;3.28;1.00;;;;;;;;;;13000324;19;20107;-64
2023/05/18 12:31:06;;;;;;;4.10;0.80;;;;;;;;;;12998869;19;20011;-65
2023/05/18 12:35:28;;;;;;;1.77;0.70;;;;;;;;;;12999109;19;19999;-63
2023/05/18 12:39:51;;;;;;;3.47;1.25;;;;;;;;;;13000069;19;20003;-63
2023/05/18 12:44:09;;;;;;;4.72;0.93;;;;;;;;;;12998546;19;20393;-64
2023/05/18 12:48:28;;;;;;;2.88;1.08;;;;;;;;;;13000482;19;20010;-64
2023/05/18 12:52:49;;;;;;;4.80;1.00;;;;;;;;;;12999852;19;20014;-64
2023/05/18 12:57:09;;;;;;;2.55;0.50;;;;;;;;;;12998719;19;20351;-65
2023/05/18 13:01:26;;;;;;;2.40;0.95;;;;;;;;;;12999345;19;20358;-65
2023/05/18 13:06:02;;;;;;;2.28;0.88;;;;;;;;;;12999828;19;20011;-65
2023/05/18 13:10:20;;;;;;;1.02;0.63;;;;;;;;;;12998914;19;20314;-65
2023/05/18 13:14:38;;;;;;;1.80;0.70;;;;;;;;;;12998895;19;20015;-64
2023/05/18 13:19:05;;;;;;;1.13;0.70;;;;;;;;;;12998772;19;20003;-65
2023/05/18 13:23:27;;;;;;;2.25;1.00;;;;;;;;;;12998504;19;20011;-64
2023/05/18 13:27:49;;;;;;;2.25;1.20;;;;;;;;;;12998614;19;20134;-65
2023/05/18 13:32:07;;;;;;;0.73;0.50;;;;;;;;;;12996852;19;20023;-65
2023/05/18 13:36:25;;;;;;;0.57;0.47;;;;;;;;;;13005363;19;20026;-65
2023/05/18 13:40:44;;;;;;;;;;;;;;;;;;13010639;19;20014;-65
2023/05/18 13:45:02;;;;;;;0.68;0.43;;;;;;;;;;13008700;19;20230;-65
2023/05/18 13:49:20;;;;;;;1.65;0.73;;;;;;;;;;13009572;19;20350;-65
2023/05/18 13:53:38;;;;;;;1.05;0.65;;;;;;;;;;13009588;19;20336;-65
2023/05/18 13:57:57;;;;;;;2.33;0.75;;;;;;;;;;13010164;19;20489;-65
2023/05/18 14:02:14;;;;;;;0.95;0.65;;;;;;;;;;13008403;19;20010;-65
2023/05/18 14:06:32;;;;;;;1.42;0.80;;;;;;;;;;13009028;19;20334;-65
2023/05/18 14:10:50;;;;;;;1.35;0.82;;;;;;;;;;13008059;19;20010;-65
2023/05/18 14:15:09;;;;;;;0.65;0.52;;;;;;;;;;13008855;19;20007;-65
2023/05/18 14:19:27;;;;;;;1.45;0.63;;;;;;;;;;13008297;19;20011;-65
2023/05/18 14:23:47;;;;;;;2.50;0.93;;;;;;;;;;13005091;19;20014;-65
2023/05/18 14:28:04;;;;;;;1.20;0.82;;;;;;;;;;13004358;19;20011;-65
2023/05/18 14:32:22;;;;;;;1.15;0.63;;;;;;;;;;13004792;19;20473;-65
2023/05/18 14:36:40;;;;;;;1.33;0.90;;;;;;;;;;13007658;19;20018;-65
2023/05/18 14:40:59;;;;;;;1.80;0.80;;;;;;;;;;13006887;19;20485;-65
2023/05/18 14:45:16;;;;;;;2.17;0.70;;;;;;;;;;13005597;19;20006;-65
2023/05/18 14:49:34;;;;;;;3.05;0.80;;;;;;;;;;13005123;19;20019;-64
2023/05/18 14:53:51;;;;;;;2.22;1.13;;;;;;;;;;13005265;19;20010;-64
2023/05/18 14:58:13;;;;;;;1.05;0.57;;;;;;;;;;13004687;19;20009;-65
2023/05/18 15:02:31;;;;;;;1.75;1.05;;;;;;;;;;13006181;19;20365;-64
2023/05/18 15:06:49;;;;;;;3.55;1.40;;;;;;;;;;13005697;19;20002;-64
2023/05/18 15:11:06;;;;;;;8.63;2.97;;;;;;;;;;13003505;19;20372;-65
2023/05/18 15:15:24;;;;;;;44.58;16.67;;;;;;;;;;13004851;19;20007;-64
2023/05/18 15:19:43;;;;;;;20.27;7.18;;;;;;;;;;13003089;19;20007;-63
2023/05/18 15:24:00;;;;;;;15.82;5.07;;;;;;;;;;13004147;19;20010;-63
2023/05/18 15:28:19;;;;;;;21.20;7.80;;;;;;;;;;13004781;19;20026;-64
2023/05/18 15:32:38;;;;;;;8.73;3.40;;;;;;;;;;13004386;19;20006;-63
2023/05/18 15:36:55;;;;;;;6.05;2.28;;;;;;;;;;13003977;19;20346;-64
2023/05/18 15:41:13;;;;;;;3.80;2.10;;;;;;;;;;13003230;19;20006;-64
2023/05/18 15:45:30;;;;;;;3.67;1.40;;;;;;;;;;13002242;19;20013;-64
2023/05/18 15:49:48;;;;;;;2.55;1.23;;;;;;;;;;13002563;19;20003;-64
2023/05/18 15:54:05;;;;;;;3.42;2.00;;;;;;;;;;13001810;19;20059;-64
2023/05/18 15:58:26;;;;;;;6.97;3.40;;;;;;;;;;13001466;19;20410;-64
2023/05/18 16:02:44;;;;;;;6.97;3.10;;;;;;;;;;13002571;19;20070;-64
2023/05/18 16:07:02;;;;;;;5.57;3.30;;;;;;;;;;13002120;19;20449;-63
2023/05/18 16:11:20;;;;;;;6.05;3.45;;;;;;;;;;13001714;19;20006;-64
2023/05/18 16:15:38;;;;;;;10.27;4.35;;;;;;;;;;13001267;19;20021;-64
2023/05/18 16:19:55;;;;;;;5.82;3.28;;;;;;;;;;13001358;19;20003;-64
2023/05/18 16:24:13;;;;;;;5.75;2.70;;;;;;;;;;13000175;19;20010;-65
2023/05/18 16:28:31;;;;;;;8.60;4.15;;;;;;;;;;13001940;19;20014;-64
2023/05/18 16:32:48;;;;;;;18.70;13.70;;;;;;;;;;13000758;19;20006;-64
2023/05/18 16:37:06;;;;;;;14.15;9.07;;;;;;;;;;13000018;19;20342;-64
2023/05/18 16:41:25;;;;;;;7.35;3.72;;;;;;;;;;13000522;19;20010;-64
2023/05/18 16:45:43;;;;;;;3.58;1.90;;;;;;;;;;12999162;19;20461;-64
2023/05/18 16:50:00;;;;;;;2.72;1.48;;;;;;;;;;12999945;19;20029;-64
2023/05/18 16:54:18;;;;;;;2.95;1.60;;;;;;;;;;12998768;19;20330;-64
2023/05/18 16:58:35;;;;;;;8.68;3.35;;;;;;;;;;12999731;19;20006;-64
2023/05/18 17:02:53;;;;;;;11.05;4.45;;;;;;;;;;12999078;19;20014;-64
2023/05/18 17:07:11;;;;;;;10.88;4.03;;;;;;;;;;12998059;19;20010;-65
2023/05/18 17:11:29;;;;;;;;;;;;;;;;;;13007040;19;20015;-65
2023/05/18 17:15:47;;;;;;;8.15;5.30;;;;;;;;;;13011764;19;19907;-64
2023/05/18 17:20:07;;;;;;;4.65;2.60;;;;;;;;;;13011617;19;20014;-64
2023/05/18 17:24:24;;;;;;;18.15;7.80;;;;;;;;;;13010129;19;20022;-64
2023/05/18 17:28:43;;;;;;;;;;;;;;;;;;13011201;19;20026;-64
2023/05/18 17:33:00;;;;;;;5.03;2.00;;;;;;;;;;13009942;19;19910;-64
2023/05/18 17:37:18;;;;;;;;;;;;;;;;;;13010721;19;20026;-64
2023/05/18 17:41:36;;;;;;;16.23;6.33;;;;;;;;;;13010349;19;19919;-65
2023/05/18 17:45:54;;;;;;;32.15;10.40;;;;;;;;;;13008843;19;20006;-64
2023/05/18 17:50:12;;;;;;;33.40;15.07;;;;;;;;;;13008804;19;20347;-64
2023/05/18 17:54:30;;;;;;;54.40;24.50;;;;;;;;;;13008683;19;20014;-64
2023/05/18 17:58:47;;;;;;;46.58;21.65;;;;;;;;;;13007254;19;20342;-64
2023/05/18 18:03:05;;;;;;;24.05;13.75;;;;;;;;;;13008213;19;20342;-64
2023/05/18 18:07:23;;;;;;;19.63;8.55;;;;;;;;;;13008125;19;20014;-64
2023/05/18 18:11:40;;;;;;;10.63;4.55;;;;;;;;;;13007842;19;20010;-64
2023/05/18 18:15:58;;;;;;;20.92;10.60;;;;;;;;;;13008332;19;20010;-64
2023/05/18 18:20:16;;;;;;;38.42;10.68;;;;;;;;;;13006953;19;20018;-64
2023/05/18 18:24:33;;;;;;;33.15;10.02;;;;;;;;;;13006544;19;20438;-64
2023/05/18 18:28:51;;;;;;;15.27;5.43;;;;;;;;;;13007725;19;20115;-64
2023/05/18 18:33:10;;;;;;;;;;;;;;;;;;13006486;19;20005;-64
2023/05/18 18:37:27;;;;;;;19.95;8.27;;;;;;;;;;13007100;19;20223;-64
2023/05/18 18:41:45;;;;;;;;;;;;;;;;;;13007555;19;20011;-64
2023/05/18 18:46:04;;;;;;;16.55;6.57;;;;;;;;;;13003563;19;19911;-64
2023/05/18 18:50:21;;;;;;;;;;;;;;;;;;13007180;19;19999;-64
2023/05/18 18:54:39;;;;;;;5.57;3.28;;;;;;;;;;13004842;19;19943;-64
2023/05/18 18:58:57;;;;;;;7.20;3.90;;;;;;;;;;13006064;19;20443;-64
2023/05/18 19:03:15;;;;;;;14.85;5.53;;;;;;;;;;13005535;19;20011;-64
2023/05/18 19:07:33;;;;;;;14.40;6.80;;;;;;;;;;13005848;19;20011;-64
2023/05/18 19:11:55;;;;;;;11.32;5.90;;;;;;;;;;13004437;19;20011;-64
2023/05/18 19:16:16;;;;;;;12.02;6.13;;;;;;;;;;13004285;19;20010;-64
2023/05/18 19:20:33;;;;;;;7.60;4.45;;;;;;;;;;13002268;19;20011;-64
2023/05/18 19:24:51;;;;;;;7.25;3.60;;;;;;;;;;13004346;19;20336;-64
2023/05/18 19:29:09;;;;;;;10.38;5.60;;;;;;;;;;13003361;19;20342;-65
2023/05/18 19:33:27;;;;;;;9.57;5.18;;;;;;;;;;13001548;19;20031;-64
2023/05/18 19:37:45;;;;;;;11.88;4.72;;;;;;;;;;13003217;19;20007;-64
2023/05/18 19:42:04;;;;;;;9.55;4.05;;;;;;;;;;13002425;19;20006;-65
2023/05/18 19:46:22;;;;;;;8.88;4.78;;;;;;;;;;13002023;19;20032;-65
2023/05/18 19:50:40;;;;;;;5.40;3.75;;;;;;;;;;13003249;19;20011;-64
2023/05/18 19:54:58;;;;;;;9.57;4.30;;;;;;;;;;13001836;19;20346;-64
2023/05/18 19:59:15;;;;;;;6.70;3.83;;;;;;;;;;13001784;19;20042;-64
2023/05/18 20:03:33;;;;;;;8.30;3.92;;;;;;;;;;13002290;19;20469;-64
2023/05/18 20:07:51;;;;;;;5.68;2.97;;;;;;;;;;13001723;19;20091;-64
2023/05/18 20:12:09;;;;;;;5.55;3.22;;;;;;;;;;13000494;19;20438;-64
2023/05/18 20:16:27;;;;;;;6.63;2.17;;;;;;;;;;13001043;19;20011;-64
2023/05/18 20:20:46;;;;;;;4.40;2.50;;;;;;;;;;13000984;19;20010;-64
2023/05/18 20:25:05;;;;;;;5.00;2.10;;;;;;;;;;13000437;19;20031;-65
2023/05/18 20:29:22;;;;;;;9.93;2.15;;;;;;;;;;13001076;19;20018;-64
2023/05/18 20:33:41;;;;;;;4.93;2.00;;;;;;;;;;12999945;19;20476;-64
2023/05/18 20:38:01;;;;;;;7.78;3.22;;;;;;;;;;13000418;19;20428;-64
2023/05/18 20:42:20;;;;;;;3.47;2.00;;;;;;;;;;13000780;19;20013;-64
2023/05/18 20:46:40;;;;;;;3.78;1.83;;;;;;;;;;13008061;19;20071;-64
2023/05/18 20:50:59;;;;;;;3.25;1.80;;;;;;;;;;13012702;19;20006;-64
2023/05/18 20:55:18;;;;;;;7.45;1.90;;;;;;;;;;13010994;19;20402;-64
2023/05/18 20:59:35;;;;;;;3.25;1.55;;;;;;;;;;13011867;19;20017;-64
2023/05/18 21:03:57;;;;;;;2.75;1.90;;;;;;;;;;13011731;19;20007;-64
2023/05/18 21:08:15;;;;;;;3.53;1.73;;;;;;;;;;13010862;19;20007;-64
2023/05/18 21:12:33;;;;;;;4.53;2.05;;;;;;;;;;13010835;19;20245;-63
2023/05/18 21:16:51;;;;;;;;;;;;;;;;;;13011804;19;20042;-63
2023/05/18 21:21:09;;;;;;;2.83;1.63;;;;;;;;;;13009026;19;19937;-64
2023/05/18 21:25:27;;;;;;;2.50;1.48;;;;;;;;;;13010273;19;20018;-63
2023/05/18 21:29:45;;;;;;;3.17;1.73;;;;;;;;;;13010631;19;20344;-63
2023/05/18 21:34:03;;;;;;;2.22;1.25;;;;;;;;;;13008971;19;19999;-63
2023/05/18 21:38:21;;;;;;;1.88;1.05;;;;;;;;;;13010287;19;20014;-63
2023/05/18 21:42:43;;;;;;;3.42;1.77;;;;;;;;;;13010231;19;20030;-63
2023/05/18 21:47:01;;;;;;;2.60;1.35;;;;;;;;;;13008108;19;20026;-63
2023/05/18 21:51:19;;;;;;;3.60;1.70;;;;;;;;;;13010171;19;20037;-63
2023/05/18 21:55:37;;;;;;;2.47;1.17;;;;;;;;;;13008842;19;20043;-63
2023/05/18 21:59:54;;;;;;;4.07;1.60;;;;;;;;;;13009613;19;20025;-63
2023/05/18 22:04:12;;;;;;;1.77;1.10;;;;;;;;;;13006840;19;20011;-63
2023/05/18 22:08:30;;;;;;;2.30;1.20;;;;;;;;;;13008761;19;20078;-63
2023/05/18 22:12:47;;;;;;;2.13;1.20;;;;;;;;;;13007625;19;20126;-63
2023/05/18 22:17:05;;;;;;;2.58;1.58;;;;;;;;;;13007279;19;20350;-66
2023/05/18 22:21:23;;;;;;;4.57;1.95;;;;;;;;;;13007984;19;20457;-63
2023/05/18 22:25:41;;;;;;;4.15;2.03;;;;;;;;;;13008075;19;20029;-63
2023/05/18 22:29:58;;;;;;;3.95;1.70;;;;;;;;;;13008326;19;20138;-63
2023/05/18 22:34:16;;;;;;;3.63;1.40;;;;;;;;;;13006440;19;20108;-63
2023/05/18 22:38:34;;;;;;;3.38;1.95;;;;;;;;;;13006820;19;20007;-63
2023/05/18 22:42:53;;;;;;;3.58;1.48;;;;;;;;;;13006442;19;20006;-63
2023/05/18 22:47:12;;;;;;;3.15;1.70;;;;;;;;;;13004946;19;20018;-64
2023/05/18 22:51:32;;;;;;;2.00;1.35;;;;;;;;;;13006151;19;20342;-64
2023/05/18 22:55:50;;;;;;;5.97;1.83;;;;;;;;;;13006302;19;20015;-64
2023/05/18 23:00:11;;;;;;;2.55;1.30;;;;;;;;;;13003970;19;20018;-64
2023/05/18 23:04:29;;;;;;;3.00;1.60;;;;;;;;;;13005750;19;20007;-63
2023/05/18 23:08:47;;;;;;;;;;;;;;;;;;13003753;19;20337;-64
2023/05/18 23:13:04;;;;;;;3.88;2.30;;;;;;;;;;13002688;19;19926;-65
2023/05/18 23:17:22;;;;;;;3.60;1.75;;;;;;;;;;13004997;19;20026;-65
2023/05/18 23:21:40;;;;;;;5.20;2.55;;;;;;;;;;13004907;19;20005;-65
2023/05/18 23:25:58;;;;;;;4.60;1.77;;;;;;;;;;13004801;19;20018;-65
2023/05/18 23:30:16;;;;;;;3.08;1.55;;;;;;;;;;13004404;19;20018;-65
2023/05/18 23:34:35;;;;;;;4.22;1.80;;;;;;;;;;13004006;19;20006;-65
2023/05/18 23:38:58;;;;;;;1.50;1.13;;;;;;;;;;13004093;19;20011;-65
2023/05/18 23:43:16;;;;;;;2.92;1.50;;;;;;;;;;13003496;19;20499;-65
2023/05/18 23:47:34;;;;;;;2.58;1.58;;;;;;;;;;13003732;19;20006;-64
2023/05/18 23:51:53;;;;;;;2.20;1.58;;;;;;;;;;13003520;19;20013;-65
2023/05/18 23:56:11;;;;;;;;;;;;;;;;;;13003059;19;20014;-65
